Flight Track Log - Related Links

Times and Time Zones

All times are in EDT time to prevent confusion due to time zone crossing. See the EJA831 flight status page for this flight to view local times or setup timezone preferences in your user account.

Time Position Orientation Groundspeed Altitude Reporting Facility
EDT Latitude Longitude Course Direction KTS MPH feet Rate Location/Type
Sat 11:16:45 AM 26.6325 -81.7133 347° North 249 287 6,800  Level Miami Center
Sat 11:17:45 AM 26.7075 -81.7189 356° North 254 292 10,000 3,025 Climbing Miami Center
Sat 11:18:46 AM 26.7886 -81.7244 357° North 264 304 12,900 1,500 Climbing Miami Center
Sat 11:19:45 AM 26.8717 -81.7350 354° North 289 333 13,000 50 Climbing Miami Center
Sat 11:20:45 AM 26.9572 -81.7408 357° North 294 338 13,000 900 Level Miami Center
Sat 11:21:00 AM 27.1677 -81.7919 347° North  Level FlightAware Approximate
Sat 11:21:45 AM 27.0381 -81.7536 352° North 299 344 14,800  Level Miami Center
Sat 11:22:46 AM 27.1208 -81.7781 345° North 294 338 17,500 2,600 Climbing Miami Center
Sat 11:23:45 AM 27.2136 -81.8075 344° North 299 344 20,000 2,471 Climbing Miami Center
Sat 11:24:45 AM 27.3044 -81.8372 344° North 321 369 22,400 2,150 Climbing Miami Center
Sat 11:25:45 AM 27.3911 -81.8692 342° North 321 369 24,300 1,800 Climbing Miami Center
Sat 11:26:45 AM 27.4756 -81.8983 343° North 333 383 26,000 1,636 Climbing Miami Center
Sat 11:27:46 AM 27.5664 -81.9328 341° North 344 396 27,600 1,900 Climbing Miami Center
Sat 11:28:45 AM 27.6719 -81.8906 20° North 344 396 29,800 2,100 Climbing Miami Center
Sat 11:29:46 AM 27.7636 -81.8361 28° Northeast 355 409 31,800 1,850 Climbing Miami Center
Sat 11:30:45 AM 27.8428 -81.7833 31° Northeast 366 421 33,500 1,100 Climbing Miami Center
Sat 11:31:46 AM 27.9383 -81.7333 25° Northeast 371 427 34,000 298 Climbing Miami Center
Sat 11:32:46 AM 28.0492 -81.7239 North 376 433 34,100 1,050 Climbing Miami Center
Sat 11:33:46 AM 28.1561 -81.7122 North 381 438 36,100 2,000 Climbing Miami Center
Sat 11:34:46 AM 28.2564 -81.7047 North 376 433 38,100 1,916 Climbing Miami Center
Sat 11:35:45 AM 28.3528 -81.6947 North 355 409 39,900 1,400 Climbing Miami Center
Sat 11:36:46 AM 28.4467 -81.6892 North 343 395 40,900 524 Climbing Miami Center
Sat 11:37:51 AM 28.5700 -81.6800 North 346 398 41,000 48 Climbing Jacksonville Center
Sat 11:38:51 AM 28.6742 -81.6692 North 368 423 41,000  Level Jacksonville Center
Sat 11:39:51 AM 28.7825 -81.6583 North 381 438 41,000  Level Jacksonville Center
Sat 11:40:51 AM 28.8953 -81.6500 North 386 444 41,000  Level Jacksonville Center
Sat 11:41:51 AM 29.0056 -81.6367 North 391 450 41,000  Level Jacksonville Center
Sat 11:42:51 AM 29.1039 -81.6331 North 391 450 41,000  Level Jacksonville Center
Sat 11:43:51 AM 29.2250 -81.6433 356° North 391 450 41,000  Level Jacksonville Center
Sat 11:44:51 AM 29.3336 -81.6467 358° North 386 444 41,000  Level Jacksonville Center
Sat 11:45:51 AM 29.4400 -81.6525 357° North 386 444 41,000  Level Jacksonville Center
Sat 11:46:51 AM 29.5486 -81.6583 357° North 386 444 41,000  Level Jacksonville Center
Sat 11:47:51 AM 29.6572 -81.6642 357° North 386 444 41,000  Level Jacksonville Center
Sat 11:48:51 AM 29.7658 -81.6700 357° North 386 444 41,000  Level Jacksonville Center
Sat 11:49:51 AM 29.8744 -81.6758 357° North 386 444 41,000  Level Jacksonville Center
Sat 11:50:51 AM 29.9831 -81.6792 358° North 386 444 41,000  Level Jacksonville Center
Sat 11:51:51 AM 30.0939 -81.6850 357° North 386 444 41,000  Level Jacksonville Center
Sat 11:52:51 AM 30.2025 -81.6908 357° North 386 444 41,000  Level Jacksonville Center
Sat 11:53:51 AM 30.3153 -81.6919 360° North 386 444 41,000  Level Jacksonville Center
Sat 11:54:51 AM 30.4322 -81.7000 357° North 400 460 41,000  Level Jacksonville Center
Sat 11:55:51 AM 30.5450 -81.7083 356° North 406 467 41,000  Level Jacksonville Center
Sat 11:56:52 AM 30.6578 -81.7189 355° North 406 467 41,000  Level Jacksonville Center
Sat 11:57:51 AM 30.7686 -81.7247 357° North 406 467 41,000  Level Jacksonville Center
Sat 11:58:51 AM 30.8750 -81.7381 354° North 401 461 41,000  Level Jacksonville Center
Sat 11:59:51 AM 30.9797 -81.7536 353° North 390 449 41,000  Level Jacksonville Center
Sat 12:00:51 PM 31.0883 -81.7694 353° North 385 443 41,000  Level Jacksonville Center
Sat 12:01:51 PM 31.1867 -81.7853 352° North 392 451 41,000  Level Jacksonville Center
Sat 12:02:51 PM 31.2953 -81.8008 353° North 390 449 41,000  Level Jacksonville Center
Sat 12:03:51 PM 31.4000 -81.8142 354° North 377 434 41,000  Level Jacksonville Center
Sat 12:04:51 PM 31.5211 -81.8325 353° North 389 448 41,000  Level Jacksonville Center
Sat 12:05:51 PM 31.6319 -81.8483 353° North 395 455 41,000  Level Jacksonville Center
Sat 12:06:51 PM 31.7281 -81.8642 352° North 388 447 41,000  Level Jacksonville Center
Sat 12:07:51 PM 31.8453 -81.8825 352° North 388 447 41,000  Level Jacksonville Center
Sat 12:10:08 PM 32.0769 -81.9136 354° North 363 418 41,000 -152 Level Atlanta Center
Sat 12:11:08 PM 32.1814 -81.9283 353° North 355 409 40,500 -850 Descending Atlanta Center
Sat 12:12:08 PM 32.2944 -81.9478 352° North 366 421 39,300 -1,100 Descending Atlanta Center
Sat 12:13:08 PM 32.3992 -81.9650 352° North 371 427 38,300 -1,000 Descending Atlanta Center
Sat 12:14:08 PM 32.5078 -81.9772 355° North 371 427 37,300 -1,000 Descending Atlanta Center
Sat 12:15:08 PM 32.6189 -81.9969 351° North 387 445 36,300 -1,000 Descending Atlanta Center
Sat 12:16:08 PM 32.7339 -82.0114 354° North 399 459 35,300 -650 Descending Atlanta Center
Sat 12:17:08 PM 32.8469 -82.0311 352° North 405 466 35,000 -150 Descending Atlanta Center
Sat 12:18:08 PM 32.9578 -82.0483 353° North 405 466 35,000  Level Atlanta Center
Sat 12:19:08 PM 33.0728 -82.0631 354° North 410 472 35,000  Level Atlanta Center
Sat 12:20:08 PM 33.1858 -82.0831 352° North 410 472 35,000  Level Atlanta Center
Sat 12:21:08 PM 33.2883 -82.0981 353° North 410 472 35,000 -750 Level Atlanta Center
Sat 12:22:08 PM 33.4014 -82.1153 353° North 410 472 33,500 -1,500 Descending Atlanta Center
Sat 12:23:08 PM 33.5186 -82.1303 354° North 410 472 32,000 -1,550 Descending Atlanta Center
Sat 12:24:08 PM 33.6378 -82.1500 352° North 415 478 30,400 -1,600 Descending Atlanta Center
Sat 12:25:08 PM 33.7567 -82.1525 359° North 425 489 28,800 -1,550 Descending Atlanta Center
Sat 12:26:08 PM 33.8797 -82.1347 North 425 489 27,300 -1,550 Descending Atlanta Center
Sat 12:27:08 PM 34.0025 -82.1094 10° North 436 502 25,700 -1,350 Descending Atlanta Center
Sat 12:28:08 PM 34.1189 -82.0917 North 441 507 24,600 -850 Descending Atlanta Center
Sat 12:29:08 PM 34.2439 -82.0661 10° North 423 487 24,000 -1,000 Descending Atlanta Center
Sat 12:30:08 PM 34.3542 -82.0486 North 404 465 22,600 -1,500 Descending Atlanta Center
Sat 12:31:08 PM 34.4603 -82.0358 North 398 458 21,000 -8,800 Descending Atlanta Center
Sat 12:32:08 PM 34.5672 -82.0686 346° North 384 442 5,000 -1,600 Descending Atlanta Center
Sat 12:33:08 PM 34.6600 -82.1194 336° Northwest 369 425 17,800 5,700 Climbing Atlanta Center
Sat 12:34:08 PM 34.7547 -82.1706 336° Northwest 369 425 16,400 -1,500 Descending Atlanta Center
Sat 12:35:08 PM 34.8453 -82.2217 335° Northwest 364 419 14,800 -1,600 Descending Atlanta Center
Sat 12:36:08 PM 34.9292 -82.2653 337° Northwest 353 406 13,200 -1,600 Descending Atlanta Center
Sat 12:37:08 PM 35.0178 -82.3167 335° Northwest 342 394 11,600 -1,600 Descending Atlanta Center
Sat 12:38:08 PM 35.0956 -82.3583 336° Northwest 330 380 10,000 -1,600 Descending Atlanta Center
Sat 12:39:08 PM 35.1772 -82.3819 347° North 314 361 8,400 -1,500 Descending Atlanta Center
Sat 12:40:08 PM 35.2628 -82.3881 357° North 309 356 7,000 -700 Descending Atlanta Center
Sat 12:41:08 PM 35.3358 -82.4017 351° North 276 318 7,000  Level Atlanta Center
Sat 12:42:08 PM 35.3969 -82.4361 335° Northwest 243 280 7,000  Level Atlanta Center
Sat 12:43:08 PM 35.4578 -82.4631 340° North 232 267 7,000  Level Atlanta Center
Sat 12:44:08 PM 35.5103 -82.4900 337° Northwest 232 267 7,000  Level Atlanta Center
Sat 12:45:08 PM 35.5692 -82.5172 339° North 232 267 7,000  Level Atlanta Center
Sat 12:46:08 PM 35.6300 -82.5492 337° Northwest 232 267 7,000 -50 Level Atlanta Center
Sat 12:47:08 PM 35.6700 -82.5919 319° Northwest 222 255 6,900 -600 Descending Atlanta Center
Sat 12:48:08 PM 35.6394 -82.6411 233° Southwest 150 173 5,800 -850 Descending Atlanta Center
Sat 12:49:08 PM 35.6039 -82.6364 174° South 91 105 5,200 -400 Descending Atlanta Center
Sat 12:50:08 PM 35.5769 -82.6497 202° Southwest 91 105 5,000 -200 Descending Atlanta Center

Login

Don't have an account? Register now (free) for customized features, flight alerts, and more!